EGVN - Brize Norton
Distance from station: E 5mi, 14km
Updated: 10/19/2017 12:50pm
Mostly Cloudy
Mostly Cloudy
 Wind from S
Wind: S 14 mph , 22 km/h
Temperature: 57°F , 14°C
Dew Point: 52°F , 11°C
Humidity: 82%
Barometer: 29.44 inHg , 997 hPa
Clouds: Mostly Cloudy
Visibility: 6 miles , 10 km
Cloud details: Partly Cloudy 1500 ft
Mostly Cloudy 5000 ft
2017/10/19 19:50 EGVN 191950Z 17012KT 9999 SCT015 BKN050 14/11 Q0997 TEMPO 7000 -RA SCT014